Time;durP1;ratioP1;P1;durP2;ratioP2;P2;SDS_P1;SDS_P2;PMS_P1;PMS_P2;Temp;Humidity;BMP_temperature;BMP_pressure;BME280_temperature;BME280_humidity;BME280_pressure;Samples;Min_cycle;Max_cycle;Signal;HPM_P1;HPM_P2
2022/05/10 00:00:50;;;;;;;8.93;8.02;;;;;;;8.50;100.00;93664.56;2119301;27;20123;-79
2022/05/10 00:01:51;;;;;;;8.75;7.90;;;;;;;8.50;100.00;93661.91;2110236;28;20024;-80
2022/05/10 00:02:55;;;;;;;9.45;8.45;;;;;;;8.43;100.00;93662.72;2098264;28;20028;-81
2022/05/10 00:03:57;;;;;;;8.65;7.88;;;;;;;8.44;100.00;93655.47;2107220;28;20016;-81
2022/05/10 00:04:59;;;;;;;8.68;7.78;;;;;;;8.43;100.00;93662.72;2115676;28;20045;-82
2022/05/10 00:06:00;;;;;;;8.45;7.75;;;;;;;8.36;100.00;93654.72;2114827;28;20031;-82
2022/05/10 00:07:01;;;;;;;8.98;8.10;;;;;;;8.20;100.00;93657.06;2106935;28;20070;-82
2022/05/10 00:08:06;;;;;;;9.05;8.15;;;;;;;8.26;100.00;93650.97;2106662;28;20502;-81
2022/05/10 00:09:08;;;;;;;9.25;8.13;;;;;;;8.37;100.00;93652.84;2106779;28;20016;-81
2022/05/10 00:10:10;;;;;;;8.77;8.02;;;;;;;8.35;100.00;93658.53;2098823;28;20054;-80
2022/05/10 00:11:11;;;;;;;8.73;7.95;;;;;;;8.24;100.00;93658.56;2094335;28;20024;-81
2022/05/10 00:12:12;;;;;;;9.90;7.65;;;;;;;8.16;100.00;93657.06;2103085;28;20389;-80
2022/05/10 00:13:19;;;;;;;10.43;7.93;;;;;;;8.27;100.00;93646.41;2097909;28;20818;-80
2022/05/10 00:14:20;;;;;;;10.48;8.10;;;;;;;8.31;100.00;93650.56;2104821;27;20166;-81
2022/05/10 00:15:21;;;;;;;9.70;8.80;;;;;;;8.15;100.00;93650.25;2106931;28;20062;-81
2022/05/10 00:16:22;;;;;;;9.65;8.50;;;;;;;8.26;100.00;93652.88;2097517;28;20028;-81
2022/05/10 00:17:35;;;;;;;9.48;8.60;;;;;;;8.19;100.00;93647.56;2106933;28;20077;-80
2022/05/10 00:18:37;;;;;;;8.45;7.70;;;;;;;8.19;100.00;93652.88;2115089;28;20019;-82
2022/05/10 00:19:38;;;;;;;9.25;8.02;;;;;;;8.08;100.00;93651.03;2115225;27;20031;-80
2022/05/10 00:20:40;;;;;;;8.65;7.85;;;;;;;8.04;100.00;93650.28;2115218;28;20086;-81
2022/05/10 00:21:41;;;;;;;8.82;8.00;;;;;;;8.14;100.00;93648.72;2115366;27;20023;-81
2022/05/10 00:22:43;;;;;;;8.80;7.60;;;;;;;8.09;100.00;93649.13;2106927;28;20020;-81
2022/05/10 00:23:44;;;;;;;9.23;8.32;;;;;;;8.15;100.00;93646.81;2106799;28;20020;-81
2022/05/10 00:24:44;;;;;;;8.90;8.00;;;;;;;8.01;100.00;93651.06;2106681;28;20016;-82
2022/05/10 00:25:46;;;;;;;8.70;7.88;;;;;;;8.08;100.00;93658.28;2106075;28;20028;-81
2022/05/10 00:26:48;;;;;;;9.38;8.57;;;;;;;8.00;100.00;93651.44;2105479;28;20394;-81
2022/05/10 00:27:49;;;;;;;8.77;7.88;;;;;;;8.17;100.00;93649.88;2090368;28;20029;-81
2022/05/10 00:28:50;;;;;;;8.63;7.85;;;;;;;8.13;100.00;93651.78;2089856;28;20021;-82
2022/05/10 00:29:51;;;;;;;9.60;8.70;;;;;;;8.00;100.00;93649.53;2098195;28;20028;-81
2022/05/10 00:30:52;;;;;;;8.43;7.53;;;;;;;7.98;100.00;93651.06;2097570;28;20017;-82
2022/05/10 00:31:53;;;;;;;9.10;8.30;;;;;;;7.87;100.00;93650.34;2114921;28;20023;-81
2022/05/10 00:32:54;;;;;;;8.80;7.82;;;;;;;7.74;100.00;93655.31;2105949;28;20110;-82
2022/05/10 00:33:55;;;;;;;8.95;7.95;;;;;;;7.97;100.00;93650.31;2089973;28;20112;-82
2022/05/10 00:34:56;;;;;;;9.93;8.93;;;;;;;7.89;100.00;93653.38;2106766;28;20056;-81
2022/05/10 00:35:58;;;;;;;8.85;8.05;;;;;;;7.89;100.00;93656.03;2114982;28;20032;-81
2022/05/10 00:36:59;;;;;;;9.88;8.80;;;;;;;7.88;100.00;93652.63;2113695;28;20026;-80
2022/05/10 00:38:03;;;;;;;10.48;8.57;;;;;;;7.75;100.00;93651.50;2097232;28;20028;-82
2022/05/10 00:39:04;;;;;;;9.57;8.70;;;;;;;7.92;100.00;93648.03;2098999;28;20027;-81
2022/05/10 00:40:06;;;;;;;9.32;8.43;;;;;;;7.95;100.00;93657.16;2106768;28;20125;-81
2022/05/10 00:41:37;;;;;;;8.90;8.10;;;;;;;7.85;100.00;93660.59;2106615;28;20070;-81
2022/05/10 00:42:50;;;;;;;9.20;8.25;;;;;;;7.73;100.00;93657.22;2101964;28;20050;-81
2022/05/10 00:44:04;;;;;;;8.80;7.90;;;;;;;7.85;100.00;93655.28;2094968;28;20021;-81
2022/05/10 00:45:14;;;;;;;8.85;8.05;;;;;;;7.81;100.00;93649.97;2110377;27;20110;-81
2022/05/10 00:46:28;;;;;;;8.82;8.02;;;;;;;7.81;100.00;93658.72;2116025;27;20027;-80
2022/05/10 00:47:50;;;;;;;12.00;7.88;;;;;;;8.03;100.00;93642.66;2116737;27;20038;-81
2022/05/10 00:49:04;;;;;;;8.50;7.65;;;;;;;7.75;100.00;93654.16;2102945;28;20024;-82
2022/05/10 00:50:20;;;;;;;8.90;8.10;;;;;;;7.74;100.00;93642.00;2109202;27;20067;-82
2022/05/10 00:51:38;;;;;;;9.10;8.18;;;;;;;7.69;100.00;93645.81;2108527;28;20039;-81
2022/05/10 00:52:51;;;;;;;8.88;7.88;;;;;;;7.69;100.00;93643.16;2108105;28;20416;-82
2022/05/10 00:54:11;;;;;;;8.95;8.15;;;;;;;7.64;100.00;93643.56;2101049;28;20111;-82
2022/05/10 00:55:19;;;;;;;12.10;8.27;;;;;;;7.68;100.00;93646.19;2100722;28;20028;-82
2022/05/10 00:56:48;;;;;;;8.93;8.02;;;;;;;7.66;100.00;93645.81;2107338;28;20020;-81
2022/05/10 00:57:52;;;;;;;9.23;8.23;;;;;;;7.65;100.00;93647.75;2114732;28;20027;-81
2022/05/10 00:59:11;;;;;;;8.88;7.88;;;;;;;7.70;100.00;93646.59;2105946;28;20056;-81
2022/05/10 01:00:13;;;;;;;11.85;8.30;;;;;;;7.65;100.00;93637.09;2108630;28;20016;-81
2022/05/10 01:01:22;;;;;;;8.73;7.80;;;;;;;7.66;100.00;93646.59;2106658;28;20515;-82
2022/05/10 01:02:48;;;;;;;8.50;7.80;;;;;;;7.66;100.00;93640.50;2122618;27;20128;-81
2022/05/10 01:03:57;;;;;;;9.27;8.25;;;;;;;7.56;100.00;93642.81;2110753;28;20031;-80
2022/05/10 01:05:08;;;;;;;9.30;8.40;;;;;;;7.66;100.00;93641.25;2115881;27;20031;-81
2022/05/10 01:06:27;;;;;;;9.40;8.55;;;;;;;7.60;100.00;93634.81;2107656;28;20031;-82
2022/05/10 01:07:52;;;;;;;9.13;8.25;;;;;;;7.60;100.00;93639.41;2103196;28;21779;-81
2022/05/10 01:09:12;;;;;;;10.95;8.07;;;;;;;7.77;100.00;93630.59;2109281;28;20016;-81
2022/05/10 01:10:57;;;;;;;10.05;8.63;;;;;;;7.56;100.00;93632.16;2103199;28;20024;-82
2022/05/10 01:12:14;;;;;;;8.70;7.90;;;;;;;7.66;100.00;93629.88;2100166;28;20114;-81
2022/05/10 01:13:39;;;;;;;8.80;8.00;;;;;;;7.54;100.00;93628.38;2110461;27;20044;-82
2022/05/10 01:14:53;;;;;;;8.52;7.82;;;;;;;7.50;100.00;93625.69;2108859;28;20530;-80
2022/05/10 01:16:06;;;;;;;9.07;8.27;;;;;;;7.56;100.00;93620.78;2107964;28;20372;-80
2022/05/10 01:17:07;;;;;;;8.95;8.05;;;;;;;7.39;100.00;93626.88;2107788;28;20130;-82
2022/05/10 01:18:08;;;;;;;9.20;7.90;;;;;;;7.40;100.00;93621.16;2114500;28;20053;-82
2022/05/10 01:19:11;;;;;;;9.27;8.40;;;;;;;7.58;100.00;93621.13;2125630;27;20146;-80
2022/05/10 01:20:19;;;;;;;8.35;7.65;;;;;;;7.39;100.00;93618.91;2123122;27;20482;-82
2022/05/10 01:22:14;;;;;;;9.18;8.38;;;;;;;7.54;100.00;93615.81;2115512;27;20103;-81
2022/05/10 01:23:52;;;;;;;8.63;7.78;;;;;;;7.47;100.00;93618.50;2081508;28;20501;-80
2022/05/10 01:25:00;;;;;;;9.32;8.07;;;;;;;7.51;100.00;93618.50;2090955;28;20033;-81
2022/05/10 01:26:07;;;;;;;8.25;7.55;;;;;;;7.50;100.00;93624.94;2107087;28;20023;-81
2022/05/10 01:27:49;;;;;;;8.73;7.93;;;;;;;7.32;100.00;93615.09;2114596;28;20051;-80
2022/05/10 01:29:00;;;;;;;8.43;7.63;;;;;;;7.27;100.00;93612.81;2064347;28;20491;-81
2022/05/10 01:30:04;;;;;;;8.18;7.38;;;;;;;7.30;100.00;93614.72;2105412;28;20050;-82
2022/05/10 01:31:19;;;;;;;9.00;8.18;;;;;;;7.24;100.00;93616.28;2098690;28;20032;-81
2022/05/10 01:33:52;;;;;;;8.27;7.47;;;;;;;7.32;100.00;93609.03;2105933;27;20031;-82
2022/05/10 01:34:56;;;;;;;9.40;8.50;;;;;;;7.36;100.00;93609.78;2112551;28;20058;-80
2022/05/10 01:36:24;;;;;;;8.88;7.90;;;;;;;7.35;100.00;93607.50;2115139;27;20057;-80
2022/05/10 01:37:28;;;;;;;9.23;8.18;;;;;;;7.16;100.00;93606.03;2114277;28;20496;-81
2022/05/10 01:38:58;;;;;;;9.18;7.90;;;;;;;7.17;100.00;93605.63;2114450;27;20045;-82
2022/05/10 01:40:09;;;;;;;;;;;;;;;7.17;100.00;93599.56;2113630;27;20072;-82
2022/05/10 01:41:09;;;;;;;;;;;;;;;7.22;100.00;93601.84;2108011;28;19915;-81
2022/05/10 01:42:17;;;;;;;10.25;8.13;;;;;;;7.09;100.00;93604.13;2105979;28;19908;-81
2022/05/10 01:43:41;;;;;;;8.98;8.07;;;;;;;7.12;100.00;93605.25;2101311;28;20143;-80
2022/05/10 01:45:04;;;;;;;9.10;8.18;;;;;;;7.09;100.00;93606.03;2104201;28;20031;-82
2022/05/10 01:46:14;;;;;;;13.40;8.15;;;;;;;7.24;100.00;93600.31;2108988;28;20031;-81
2022/05/10 01:47:44;;;;;;;9.05;7.68;;;;;;;7.18;100.00;93596.50;2098904;28;20720;-81
2022/05/10 01:48:49;;;;;;;11.60;8.40;;;;;;;7.07;100.00;93598.44;2102603;28;20032;-81
2022/05/10 01:49:58;;;;;;;8.45;7.75;;;;;;;7.11;100.00;93590.44;2112043;28;20035;-80
2022/05/10 01:51:15;;;;;;;12.30;7.93;;;;;;;7.13;100.00;93591.59;2107256;28;20097;-81
2022/05/10 01:52:27;;;;;;;8.55;7.80;;;;;;;7.02;100.00;93594.25;2114315;28;20047;-80
2022/05/10 01:53:36;;;;;;;8.65;7.85;;;;;;;7.00;100.00;93585.13;2105878;28;20035;-81
2022/05/10 01:54:40;;;;;;;9.38;8.45;;;;;;;7.10;100.00;93587.03;2091672;28;20124;-81
2022/05/10 01:55:43;;;;;;;8.93;7.95;;;;;;;7.07;100.00;93591.22;2090554;28;20032;-80
2022/05/10 01:56:44;;;;;;;8.88;8.00;;;;;;;6.97;100.00;93588.56;2106713;28;20027;-81
2022/05/10 01:57:45;;;;;;;8.95;8.05;;;;;;;7.15;100.00;93588.53;2105852;28;20549;-81
2022/05/10 01:58:47;;;;;;;8.13;7.43;;;;;;;6.95;100.00;93594.25;2094790;28;20050;-81
2022/05/10 01:59:53;;;;;;;11.82;8.10;;;;;;;6.91;100.00;93593.50;2098095;28;20677;-82
2022/05/10 02:00:57;;;;;;;9.35;8.45;;;;;;;6.97;100.00;93585.91;2107285;28;20468;-81
2022/05/10 02:01:59;;;;;;;9.52;8.10;;;;;;;6.86;100.00;93585.91;2114070;27;20073;-81
2022/05/10 02:03:25;;;;;;;10.57;8.60;;;;;;;7.02;100.00;93588.94;2114517;28;20160;-80
2022/05/10 02:04:33;;;;;;;8.88;8.05;;;;;;;7.09;100.00;93587.41;2116314;27;20038;-82
2022/05/10 02:05:45;;;;;;;8.60;7.80;;;;;;;7.07;100.00;93587.81;2115311;27;20479;-81
2022/05/10 02:06:53;;;;;;;9.25;8.32;;;;;;;7.09;100.00;93585.50;2099193;28;20652;-82
2022/05/10 02:08:01;;;;;;;7.90;7.10;;;;;;;7.06;100.00;93587.03;2091490;28;20024;-81
2022/05/10 02:09:11;;;;;;;9.77;8.50;;;;;;;7.01;100.00;93587.41;2099843;28;20024;-82
2022/05/10 02:10:22;;;;;;;9.85;7.97;;;;;;;6.98;100.00;93582.88;2098838;28;20035;-81
2022/05/10 02:13:13;;;;;;;;;;;;;;;6.88;100.00;93583.63;2148806;27;20113;-80
2022/05/10 02:14:22;;;;;;;8.82;8.02;;;;;;;6.90;100.00;93580.59;2129150;27;19951;-79
2022/05/10 02:15:38;;;;;;;9.90;8.52;;;;;;;6.73;100.00;93580.22;2115603;27;20476;-80
2022/05/10 02:16:56;;;;;;;8.93;8.00;;;;;;;6.73;100.00;93577.56;2116353;27;20020;-82
2022/05/10 02:18:12;;;;;;;10.00;8.80;;;;;;;6.71;100.00;93584.38;2118341;27;20028;-81
2022/05/10 02:19:28;;;;;;;8.80;8.00;;;;;;;6.71;100.00;93581.72;2125768;27;20052;-81
2022/05/10 02:20:35;;;;;;;9.10;7.93;;;;;;;6.92;100.00;93584.38;2120567;28;20479;-79
2022/05/10 02:21:44;;;;;;;8.43;7.68;;;;;;;6.76;100.00;93584.78;2112869;28;20027;-80
2022/05/10 02:23:16;;;;;;;9.25;8.35;;;;;;;6.73;100.00;93574.13;2098961;28;20437;-79
2022/05/10 02:24:29;;;;;;;8.80;8.00;;;;;;;6.63;100.00;93574.88;2121946;27;20759;-80
2022/05/10 02:25:38;;;;;;;8.75;8.07;;;;;;;6.69;100.00;93579.44;2121079;28;20033;-81
2022/05/10 02:26:49;;;;;;;9.93;8.88;;;;;;;6.68;100.00;93580.59;2113496;28;20046;-81
2022/05/10 02:27:55;;;;;;;9.02;7.72;;;;;;;6.80;100.00;93577.56;2121702;28;20027;-81
2022/05/10 02:29:11;;;;;;;8.73;7.82;;;;;;;6.73;100.00;93574.13;2113909;28;20486;-79
2022/05/10 02:30:16;;;;;;;9.00;8.10;;;;;;;6.79;100.00;93576.03;2115148;28;20594;-79
2022/05/10 02:31:22;;;;;;;9.27;8.38;;;;;;;6.77;100.00;93573.00;2105075;28;20110;-81
2022/05/10 02:33:07;;;;;;;8.93;8.00;;;;;;;6.75;100.00;93572.59;2097734;28;20501;-80
2022/05/10 02:34:08;;;;;;;8.93;8.02;;;;;;;6.70;100.00;93578.31;2133292;27;20375;-81
2022/05/10 02:35:12;;;;;;;8.27;7.47;;;;;;;6.71;100.00;93581.72;2121462;27;20053;-81
2022/05/10 02:36:13;;;;;;;8.90;7.88;;;;;;;6.67;100.00;93580.94;2122348;27;20027;-80
2022/05/10 02:37:14;;;;;;;8.48;7.68;;;;;;;6.64;100.00;93576.41;2116167;28;20086;-80
2022/05/10 02:38:18;;;;;;;9.68;8.10;;;;;;;6.60;100.00;93573.00;2103718;28;20487;-80
2022/05/10 02:39:20;;;;;;;9.32;8.35;;;;;;;6.60;100.00;93575.66;2113646;28;20024;-81
2022/05/10 02:40:21;;;;;;;8.80;7.90;;;;;;;6.55;100.00;93577.53;2108172;27;20044;-80
2022/05/10 02:41:22;;;;;;;8.32;7.57;;;;;;;6.79;100.00;93573.38;2106745;28;20016;-80
2022/05/10 02:42:24;;;;;;;8.77;7.97;;;;;;;6.54;100.00;93573.38;2105664;28;20087;-81
2022/05/10 02:43:28;;;;;;;8.85;7.60;;;;;;;6.61;100.00;93569.97;2128050;27;20664;-80
2022/05/10 02:44:29;;;;;;;8.88;8.07;;;;;;;6.66;100.00;93568.81;2135947;27;20519;-81
2022/05/10 02:45:30;;;;;;;8.85;7.93;;;;;;;6.60;100.00;93575.66;2130104;27;20027;-81
2022/05/10 02:46:31;;;;;;;9.18;8.27;;;;;;;6.51;100.00;93576.78;2129910;27;20026;-80
2022/05/10 02:47:33;;;;;;;8.63;7.72;;;;;;;6.45;100.00;93566.91;2117747;28;20028;-80
2022/05/10 02:48:36;;;;;;;9.45;8.55;;;;;;;6.47;100.00;93570.72;2112868;28;20019;-79
2022/05/10 02:49:44;;;;;;;8.88;8.07;;;;;;;6.43;100.00;93577.91;2104447;28;20077;-80
2022/05/10 02:50:45;;;;;;;9.07;8.27;;;;;;;6.44;100.00;93574.09;2116373;27;20024;-81
2022/05/10 02:51:46;;;;;;;9.30;7.90;;;;;;;6.50;100.00;93575.28;2147718;27;20474;-80
2022/05/10 02:52:47;;;;;;;8.75;7.95;;;;;;;6.47;100.00;93570.72;2138367;27;20023;-80
2022/05/10 02:53:49;;;;;;;8.70;7.72;;;;;;;6.45;100.00;93573.00;2123136;27;20693;-79
2022/05/10 02:54:54;;;;;;;8.88;7.72;;;;;;;6.44;100.00;93582.06;2113126;28;20455;-81
2022/05/10 02:55:58;;;;;;;9.07;8.27;;;;;;;6.46;100.00;93573.75;2121926;27;20023;-80
2022/05/10 02:57:02;;;;;;;8.60;7.70;;;;;;;6.33;100.00;93585.88;2121737;27;20023;-81
2022/05/10 02:58:16;;;;;;;8.85;7.95;;;;;;;6.52;100.00;93567.66;2116533;27;20475;-80
2022/05/10 02:59:23;;;;;;;9.07;8.18;;;;;;;6.44;100.00;93576.75;2115158;27;20074;-80
2022/05/10 03:00:25;;;;;;;8.88;8.07;;;;;;;6.39;100.00;93576.38;2117932;28;20080;-80
2022/05/10 03:01:38;;;;;;;10.57;8.50;;;;;;;6.43;100.00;93574.50;2117388;27;20104;-81
2022/05/10 03:02:46;;;;;;;9.07;8.18;;;;;;;6.39;100.00;93569.19;2122357;27;20787;-80
2022/05/10 03:03:48;;;;;;;8.63;7.80;;;;;;;6.34;100.00;93574.09;2114949;27;20035;-81
2022/05/10 03:04:56;;;;;;;8.77;8.07;;;;;;;6.28;100.00;93571.81;2099280;28;20108;-81
2022/05/10 03:05:57;;;;;;;9.38;8.50;;;;;;;6.34;100.00;93572.22;2099840;28;20033;-81
2022/05/10 03:06:58;;;;;;;8.63;7.82;;;;;;;6.35;100.00;93573.72;2087577;28;20102;-81
2022/05/10 03:07:59;;;;;;;9.05;8.15;;;;;;;6.35;100.00;93575.63;2093270;28;20028;-81
2022/05/10 03:09:00;;;;;;;9.55;8.55;;;;;;;6.29;100.00;93578.66;2112748;27;20028;-80
2022/05/10 03:10:09;;;;;;;8.68;7.50;;;;;;;6.30;100.00;93571.44;2105984;28;20024;-80
2022/05/10 03:11:10;;;;;;;10.15;9.13;;;;;;;6.49;100.00;93578.28;2106569;28;20377;-80
2022/05/10 03:12:12;;;;;;;8.90;8.10;;;;;;;6.43;100.00;93574.50;2108139;28;20132;-81
2022/05/10 03:13:13;;;;;;;9.13;7.80;;;;;;;6.35;100.00;93572.97;2113812;27;20032;-80
2022/05/10 03:14:14;;;;;;;9.43;8.57;;;;;;;6.36;100.00;93569.91;2137162;27;20471;-79
2022/05/10 03:15:15;;;;;;;8.90;8.07;;;;;;;6.28;100.00;93577.13;2120166;28;20023;-80
2022/05/10 03:16:17;;;;;;;10.55;8.18;;;;;;;6.34;100.00;93569.56;2104278;28;20075;-81
2022/05/10 03:17:18;;;;;;;8.52;7.75;;;;;;;6.38;100.00;93569.56;2090417;28;20121;-80
2022/05/10 03:18:19;;;;;;;9.13;8.32;;;;;;;6.25;100.00;93569.16;2112657;27;20680;-81
2022/05/10 03:19:20;;;;;;;9.52;8.60;;;;;;;6.33;100.00;93573.34;2106779;28;20017;-80
2022/05/10 03:20:21;;;;;;;9.40;8.50;;;;;;;6.25;100.00;93567.25;2096044;28;20493;-80
2022/05/10 03:21:22;;;;;;;8.93;8.10;;;;;;;6.26;100.00;93568.78;2099400;28;20055;-80
2022/05/10 03:22:23;;;;;;;9.52;8.52;;;;;;;6.26;100.00;93568.78;2121004;27;20369;-80
2022/05/10 03:23:27;;;;;;;9.57;8.57;;;;;;;6.12;100.00;93565.34;2109798;28;20027;-80
2022/05/10 03:24:28;;;;;;;10.18;8.50;;;;;;;6.25;100.00;93572.56;2106420;28;20032;-81
2022/05/10 03:25:31;;;;;;;12.13;8.40;;;;;;;6.24;100.00;93567.66;2114926;28;20488;-81
2022/05/10 03:26:32;;;;;;;9.05;8.13;;;;;;;6.26;100.00;93570.66;2106703;28;20032;-80
2022/05/10 03:27:34;;;;;;;9.65;8.75;;;;;;;6.30;100.00;93574.84;2107121;28;20020;-81
2022/05/10 03:28:36;;;;;;;8.82;8.02;;;;;;;6.22;100.00;93569.91;2111044;28;20400;-80
2022/05/10 03:29:39;;;;;;;9.10;8.20;;;;;;;6.24;100.00;93573.72;2107308;28;20028;-81
2022/05/10 03:30:46;;;;;;;8.80;8.10;;;;;;;6.31;100.00;93565.75;2098709;28;20048;-80
2022/05/10 03:31:47;;;;;;;11.02;8.60;;;;;;;6.22;100.00;93564.59;2092145;28;20116;-80
2022/05/10 03:32:48;;;;;;;9.07;8.18;;;;;;;6.21;100.00;93568.38;2099843;28;20580;-81
2022/05/10 03:34:53;;;;;;;12.77;8.40;;;;;;;6.22;100.00;93568.00;2102281;28;20032;-81
2022/05/10 03:35:13;;;;;;;10.43;8.25;;;;;;;6.24;100.00;93565.00;2095917;28;20020;-80
2022/05/10 03:36:14;;;;;;;8.70;8.00;;;;;;;6.20;100.00;93566.88;2100398;28;20024;-80
2022/05/10 03:37:15;;;;;;;9.48;8.57;;;;;;;6.20;100.00;93566.88;2106683;28;20020;-80
2022/05/10 03:38:16;;;;;;;9.63;8.23;;;;;;;6.16;100.00;93561.56;2097670;28;20715;-81
2022/05/10 03:39:17;;;;;;;9.43;8.52;;;;;;;6.16;100.00;93560.81;2091849;28;20060;-79
2022/05/10 03:40:18;;;;;;;9.13;8.27;;;;;;;6.07;100.00;93561.16;2081981;28;20028;-80
2022/05/10 03:41:19;;;;;;;10.68;9.20;;;;;;;6.10;100.00;93560.38;2098627;28;20036;-80
2022/05/10 03:42:21;;;;;;;9.50;8.60;;;;;;;6.19;100.00;93560.81;2104297;28;20055;-79
2022/05/10 03:43:22;;;;;;;8.90;8.07;;;;;;;6.28;100.00;93563.84;2098863;28;20412;-80
2022/05/10 03:44:24;;;;;;;9.10;8.30;;;;;;;6.27;100.00;93566.88;2102540;28;20051;-80
2022/05/10 03:45:24;;;;;;;9.38;8.43;;;;;;;6.17;100.00;93555.09;2107133;28;20493;-81
2022/05/10 03:46:26;;;;;;;9.75;8.93;;;;;;;6.14;100.00;93563.81;2106798;28;20020;-80
2022/05/10 03:47:27;;;;;;;10.25;9.18;;;;;;;6.12;100.00;93565.34;2115382;28;20030;-81
2022/05/10 03:48:28;;;;;;;9.55;8.57;;;;;;;6.16;100.00;93558.91;2115305;28;20052;-80
2022/05/10 03:49:29;;;;;;;9.68;8.82;;;;;;;6.20;100.00;93564.22;2114849;28;20020;-80
2022/05/10 03:50:30;;;;;;;9.23;8.30;;;;;;;6.17;100.00;93570.28;2097998;28;20047;-80
2022/05/10 03:51:31;;;;;;;9.85;8.85;;;;;;;6.17;100.00;93562.31;2098633;28;20024;-79
2022/05/10 03:52:32;;;;;;;9.75;8.82;;;;;;;6.16;100.00;93566.09;2106879;28;20016;-80
2022/05/10 03:53:33;;;;;;;11.48;8.88;;;;;;;6.15;100.00;93564.59;2111241;28;20400;-81
2022/05/10 03:54:34;;;;;;;9.65;8.65;;;;;;;6.13;100.00;93561.53;2106886;28;20479;-80
2022/05/10 03:55:35;;;;;;;9.13;8.23;;;;;;;6.15;100.00;93567.25;2110493;28;20023;-80
2022/05/10 03:56:36;;;;;;;9.73;8.73;;;;;;;6.19;100.00;93562.69;2098410;28;20488;-81
2022/05/10 03:57:37;;;;;;;8.85;8.05;;;;;;;6.14;100.00;93571.78;2098652;28;20081;-80
2022/05/10 03:58:38;;;;;;;9.32;8.30;;;;;;;6.10;100.00;93568.34;2081683;28;20103;-80
2022/05/10 03:59:42;;;;;;;8.80;7.97;;;;;;;6.12;100.00;93568.75;2098588;28;20082;-81
2022/05/10 04:00:43;;;;;;;8.40;7.70;;;;;;;6.18;100.00;93561.94;2107064;28;20047;-81
2022/05/10 04:01:46;;;;;;;9.38;8.38;;;;;;;6.19;100.00;93560.03;2097903;28;20059;-81
2022/05/10 04:02:47;;;;;;;10.07;9.05;;;;;;;6.16;100.00;93561.56;2106759;27;20111;-80
2022/05/10 04:03:48;;;;;;;8.88;8.07;;;;;;;6.14;100.00;93558.50;2115079;28;20382;-80
2022/05/10 04:04:49;;;;;;;11.80;8.65;;;;;;;6.18;100.00;93561.94;2115434;27;20084;-80
2022/05/10 04:05:50;;;;;;;11.38;8.32;;;;;;;6.15;100.00;93554.72;2115055;28;20031;-80
2022/05/10 04:06:51;;;;;;;9.00;8.20;;;;;;;6.15;100.00;93565.34;2106876;28;20020;-80
2022/05/10 04:07:53;;;;;;;9.20;8.30;;;;;;;6.23;100.00;93561.59;2106620;28;20043;-81
2022/05/10 04:08:54;;;;;;;9.27;8.38;;;;;;;6.19;100.00;93558.16;2105426;28;20023;-81
2022/05/10 04:09:55;;;;;;;10.48;9.05;;;;;;;6.19;100.00;93566.13;2090239;28;20434;-81
2022/05/10 04:11:05;;;;;;;8.80;8.00;;;;;;;6.09;100.00;93566.09;2081759;28;20017;-80
2022/05/10 04:12:06;;;;;;;9.00;8.10;;;;;;;6.19;100.00;93560.03;2096272;28;20111;-82
2022/05/10 04:13:09;;;;;;;11.25;8.50;;;;;;;6.13;100.00;93554.34;2106927;28;20529;-81
2022/05/10 04:14:11;;;;;;;10.05;8.68;;;;;;;6.13;100.00;93559.66;2105573;28;20071;-80
2022/05/10 04:15:15;;;;;;;8.73;7.88;;;;;;;6.12;100.00;93557.38;2106622;28;20035;-80
2022/05/10 04:16:17;;;;;;;8.70;7.82;;;;;;;6.18;100.00;93558.50;2099184;28;20051;-79
2022/05/10 04:17:17;;;;;;;10.25;9.23;;;;;;;6.14;100.00;93558.50;2098296;28;20849;-80
2022/05/10 04:18:19;;;;;;;11.30;9.73;;;;;;;6.16;100.00;93550.19;2098292;28;20020;-81
2022/05/10 04:19:20;;;;;;;9.70;8.70;;;;;;;6.14;100.00;93558.50;2097945;28;20024;-82
2022/05/10 04:20:21;;;;;;;12.13;8.52;;;;;;;6.16;100.00;93561.56;2098396;28;20017;-80
2022/05/10 04:21:21;;;;;;;9.70;8.70;;;;;;;6.24;100.00;93557.78;2104185;28;20027;-81
2022/05/10 04:22:22;;;;;;;9.32;8.43;;;;;;;6.20;100.00;93553.59;2098239;28;20461;-80
2022/05/10 04:23:24;;;;;;;9.70;8.57;;;;;;;6.23;100.00;93555.47;2098253;28;20039;-80
2022/05/10 04:24:25;;;;;;;10.45;9.23;;;;;;;6.18;100.00;93548.66;2106108;28;20035;-80
2022/05/10 04:25:26;;;;;;;10.10;9.10;;;;;;;6.20;100.00;93561.56;2106376;28;20028;-81
2022/05/10 04:26:27;;;;;;;9.95;8.95;;;;;;;6.25;100.00;93559.28;2097586;28;20016;-79
2022/05/10 04:27:29;;;;;;;10.35;9.35;;;;;;;6.26;100.00;93562.72;2098117;28;20028;-81
2022/05/10 04:28:31;;;;;;;10.15;9.15;;;;;;;6.24;100.00;93554.38;2098118;28;20028;-80
2022/05/10 04:29:33;;;;;;;9.68;8.68;;;;;;;6.21;100.00;93563.09;2098477;28;20028;-80
2022/05/10 04:30:33;;;;;;;9.38;8.52;;;;;;;6.26;100.00;93560.06;2098206;28;20074;-81
2022/05/10 04:31:34;;;;;;;9.48;8.55;;;;;;;6.34;100.00;93558.19;2089697;28;20052;-81
2022/05/10 04:32:38;;;;;;;10.45;7.80;;;;;;;6.35;100.00;93559.69;2089981;28;20023;-81
2022/05/10 04:33:39;;;;;;;7.82;7.20;;;;;;;6.34;100.00;93566.91;2098328;28;20110;-80
2022/05/10 04:34:40;;;;;;;10.02;7.50;;;;;;;6.38;100.00;93554.38;2097102;28;20365;-82
2022/05/10 04:35:41;;;;;;;9.70;7.63;;;;;;;6.41;100.00;93558.16;2102014;28;20024;-81
2022/05/10 04:36:42;;;;;;;8.77;8.07;;;;;;;6.45;100.00;93556.28;2105964;28;20023;-80
2022/05/10 04:37:46;;;;;;;8.02;7.25;;;;;;;6.37;100.00;93555.53;2106943;27;20107;-80
2022/05/10 04:38:48;;;;;;;7.90;7.30;;;;;;;6.43;100.00;93569.94;2114874;28;20524;-80
2022/05/10 04:41:25;;;;;;;8.38;7.68;;;;;;;6.37;100.00;93570.72;2085986;28;20147;-80
2022/05/10 04:42:26;;;;;;;8.00;7.30;;;;;;;6.39;100.00;93566.53;2082052;28;20029;-80
2022/05/10 04:43:27;;;;;;;8.70;7.90;;;;;;;6.40;100.00;93559.31;2102528;28;20020;-80
2022/05/10 04:44:28;;;;;;;7.88;6.35;;;;;;;6.44;100.00;93562.72;2104829;28;20598;-82
2022/05/10 04:45:29;;;;;;;8.25;6.93;;;;;;;6.46;100.00;93558.56;2099432;28;20052;-79
2022/05/10 04:46:32;;;;;;;8.00;7.30;;;;;;;6.44;100.00;93560.84;2092283;28;20036;-81
2022/05/10 04:47:32;;;;;;;7.75;7.05;;;;;;;6.57;100.00;93556.66;2111199;27;20027;-81
2022/05/10 04:48:33;;;;;;;8.77;7.90;;;;;;;6.62;100.00;93562.75;2104637;28;20023;-80
2022/05/10 04:49:34;;;;;;;8.48;7.68;;;;;;;6.66;100.00;93560.84;2104369;28;20077;-80
2022/05/10 04:50:35;;;;;;;10.20;8.60;;;;;;;6.64;100.00;93563.88;2104667;28;20114;-80
2022/05/10 04:51:37;;;;;;;9.00;8.13;;;;;;;6.77;100.00;93561.63;2104884;28;20568;-81
2022/05/10 04:52:39;;;;;;;9.07;8.27;;;;;;;6.87;100.00;93563.50;2104374;28;20059;-80
2022/05/10 04:53:40;;;;;;;10.50;8.60;;;;;;;6.91;100.00;93561.59;2091222;28;20027;-79
2022/05/10 04:54:52;;;;;;;9.50;8.55;;;;;;;6.86;100.00;93562.00;2096423;28;20024;-79
2022/05/10 04:55:53;;;;;;;9.77;8.25;;;;;;;6.94;100.00;93565.41;2111532;28;20027;-79
2022/05/10 04:56:54;;;;;;;9.23;8.38;;;;;;;6.97;100.00;93567.28;2100682;28;20052;-81
2022/05/10 04:57:55;;;;;;;9.93;8.90;;;;;;;7.04;100.00;93562.72;2088394;28;20091;-80
2022/05/10 04:58:56;;;;;;;10.25;9.27;;;;;;;7.11;100.00;93563.84;2092211;28;20735;-80
2022/05/10 04:59:57;;;;;;;10.50;9.60;;;;;;;7.16;100.00;93563.50;2109903;28;20092;-80
2022/05/10 05:01:02;;;;;;;12.27;9.88;;;;;;;7.16;100.00;93563.50;2100496;28;20054;-81
2022/05/10 05:02:04;;;;;;;10.65;9.63;;;;;;;7.25;100.00;93566.50;2097610;28;20667;-81
2022/05/10 05:03:04;;;;;;;10.82;9.73;;;;;;;7.21;100.00;93566.50;2098294;28;20028;-80
2022/05/10 05:04:05;;;;;;;10.30;9.40;;;;;;;7.35;100.00;93565.72;2087696;28;20029;-82
2022/05/10 05:05:07;;;;;;;9.68;8.77;;;;;;;7.48;100.00;93566.81;2088548;28;20678;-81
2022/05/10 05:06:08;;;;;;;10.23;8.77;;;;;;;7.60;100.00;93562.25;2093694;28;20580;-79
2022/05/10 05:07:09;;;;;;;10.63;9.63;;;;;;;7.53;100.00;93571.75;2093768;28;20070;-80
2022/05/10 05:08:10;;;;;;;11.40;9.75;;;;;;;7.65;100.00;93562.59;2100669;28;20059;-80
2022/05/10 05:09:11;;;;;;;10.30;9.10;;;;;;;7.66;100.00;93569.44;2107642;28;20106;-80
2022/05/10 05:10:12;;;;;;;12.20;9.95;;;;;;;7.62;100.00;93574.00;2113749;27;20029;-81
2022/05/10 05:11:13;;;;;;;11.60;9.13;;;;;;;7.59;100.00;93569.44;2096384;28;20036;-81
2022/05/10 05:12:14;;;;;;;10.38;9.07;;;;;;;7.48;100.00;93574.81;2087923;28;20024;-82
2022/05/10 05:13:16;;;;;;;10.63;9.55;;;;;;;7.49;100.00;93572.91;2088278;28;20120;-80
2022/05/10 05:14:17;;;;;;;10.65;9.65;;;;;;;7.50;100.00;93577.06;2104752;28;20548;-81